createdAt,value
2018-06-28T00:00:07.617Z,2.50
2018-06-28T00:02:11.287Z,2.30
2018-06-28T00:04:14.948Z,2.20
2018-06-28T00:06:18.465Z,2.03
2018-06-28T00:08:21.980Z,2.30
2018-06-28T00:10:25.527Z,2.50
2018-06-28T00:12:28.685Z,2.23
2018-06-28T00:14:32.280Z,2.40
2018-06-28T00:16:35.822Z,2.20
2018-06-28T00:18:39.377Z,2.20
2018-06-28T00:20:42.953Z,2.40
2018-06-28T00:22:46.505Z,2.60
2018-06-28T00:24:50.003Z,2.67
2018-06-28T00:26:53.575Z,2.23
2018-06-28T00:28:57.113Z,2.63
2018-06-28T00:31:00.610Z,2.33
2018-06-28T00:33:04.152Z,2.80
2018-06-28T00:35:07.813Z,2.33
2018-06-28T00:37:11.416Z,2.73
2018-06-28T00:39:15.015Z,2.47
2018-06-28T00:41:18.584Z,2.50
2018-06-28T00:43:22.155Z,2.90
2018-06-28T00:45:25.924Z,2.57
2018-06-28T00:47:29.489Z,2.80
2018-06-28T00:49:33.048Z,2.93
2018-06-28T00:51:36.659Z,2.80
2018-06-28T00:53:40.189Z,3.30
2018-06-28T00:55:43.812Z,3.00
2018-06-28T00:57:47.456Z,2.97
2018-06-28T00:59:51.048Z,3.00
2018-06-28T01:01:54.659Z,2.73
2018-06-28T01:03:58.182Z,3.17
2018-06-28T01:06:01.706Z,3.00
2018-06-28T01:08:05.316Z,3.10
2018-06-28T01:10:08.847Z,3.30
2018-06-28T01:12:12.460Z,3.60
2018-06-28T01:14:16.025Z,3.20
2018-06-28T01:16:19.688Z,2.93
2018-06-28T01:18:23.217Z,3.23
2018-06-28T01:20:27.557Z,2.90
2018-06-28T01:22:31.090Z,3.33
2018-06-28T01:24:34.650Z,2.90
2018-06-28T01:26:38.190Z,3.10
2018-06-28T01:28:41.828Z,3.40
2018-06-28T01:30:45.460Z,2.80
2018-06-28T01:32:48.931Z,3.43
2018-06-28T01:34:52.576Z,3.50
2018-06-28T01:36:56.096Z,3.60
2018-06-28T01:38:59.644Z,3.70
2018-06-28T01:41:03.157Z,3.43
2018-06-28T01:43:23.647Z,2.80
2018-06-28T01:45:27.905Z,3.50
2018-06-28T01:47:31.413Z,3.40
2018-06-28T01:49:34.932Z,3.17
2018-06-28T01:51:38.453Z,3.30
2018-06-28T01:53:42.006Z,3.67
2018-06-28T01:55:46.058Z,3.30
2018-06-28T01:57:49.636Z,3.70
2018-06-28T01:59:53.205Z,3.57
2018-06-28T02:01:56.767Z,3.77
2018-06-28T02:04:00.284Z,3.83
2018-06-28T02:06:04.024Z,3.80
2018-06-28T02:08:07.992Z,3.83
2018-06-28T02:10:11.504Z,3.90
2018-06-28T02:12:14.998Z,3.30
2018-06-28T02:14:18.590Z,3.57
2018-06-28T02:16:22.076Z,3.37
2018-06-28T02:18:25.246Z,3.90
2018-06-28T02:20:29.204Z,4.00
2018-06-28T02:22:32.747Z,3.90
2018-06-28T02:24:36.396Z,4.33
2018-06-28T02:26:39.892Z,3.37
2018-06-28T02:28:43.381Z,4.00
2018-06-28T02:30:46.879Z,3.37
2018-06-28T02:32:50.512Z,3.60
2018-06-28T02:34:54.019Z,4.40
2018-06-28T02:36:57.580Z,3.90
2018-06-28T02:39:01.116Z,4.30
2018-06-28T02:41:04.717Z,3.93
2018-06-28T02:43:08.193Z,4.00
2018-06-28T02:45:11.734Z,3.90
2018-06-28T02:47:15.247Z,4.50
2018-06-28T02:49:18.765Z,4.20
2018-06-28T02:51:22.318Z,4.83
2018-06-28T02:53:25.842Z,4.37
2018-06-28T02:55:29.348Z,4.33
2018-06-28T02:57:32.865Z,4.70
2018-06-28T02:59:36.491Z,4.57
2018-06-28T03:01:40.080Z,3.73
2018-06-28T03:03:43.596Z,4.60
2018-06-28T03:05:47.141Z,4.47
2018-06-28T03:07:50.627Z,4.63
2018-06-28T03:09:54.137Z,5.00
2018-06-28T03:11:57.676Z,4.43
2018-06-28T03:14:01.229Z,4.67
2018-06-28T03:16:04.780Z,4.53
2018-06-28T03:18:08.304Z,4.23
2018-06-28T03:20:11.874Z,4.93
2018-06-28T03:22:15.416Z,4.53
2018-06-28T03:24:19.335Z,4.97
2018-06-28T03:26:22.819Z,5.10
2018-06-28T03:28:26.336Z,4.33
2018-06-28T03:30:29.874Z,4.80
2018-06-28T03:32:33.393Z,4.80
2018-06-28T03:34:36.905Z,4.63
2018-06-28T03:36:40.540Z,4.60
2018-06-28T03:38:44.035Z,5.27
2018-06-28T03:40:47.547Z,4.73
2018-06-28T03:42:51.093Z,4.67
2018-06-28T03:44:54.626Z,5.47
2018-06-28T03:46:58.108Z,4.70
2018-06-28T03:49:01.712Z,4.60
2018-06-28T03:51:05.279Z,5.00
2018-06-28T03:53:08.783Z,5.07
2018-06-28T03:55:12.335Z,5.07
2018-06-28T03:57:15.847Z,5.23
2018-06-28T03:59:19.345Z,4.63
2018-06-28T04:01:22.908Z,5.60
2018-06-28T04:03:26.480Z,4.93
2018-06-28T04:05:30.019Z,5.10
2018-06-28T04:07:33.640Z,5.40
2018-06-28T04:09:37.256Z,5.50
2018-06-28T04:11:40.747Z,5.47
2018-06-28T04:13:44.385Z,4.93
2018-06-28T04:15:47.543Z,5.07
2018-06-28T04:17:51.174Z,5.10
2018-06-28T04:19:54.785Z,5.43
2018-06-28T04:21:58.328Z,5.60
2018-06-28T04:24:01.832Z,4.77
2018-06-28T04:26:05.427Z,5.13
2018-06-28T04:28:09.001Z,5.00
2018-06-28T04:30:12.560Z,5.63
2018-06-28T04:32:16.124Z,5.60
2018-06-28T04:34:19.773Z,5.90
2018-06-28T04:36:23.329Z,5.03
2018-06-28T04:38:26.899Z,5.10
2018-06-28T04:40:30.552Z,5.43
2018-06-28T04:42:34.011Z,5.20
2018-06-28T04:44:37.497Z,4.77
2018-06-28T04:46:41.036Z,5.07
2018-06-28T04:48:44.646Z,5.70
2018-06-28T04:50:48.312Z,4.97
2018-06-28T04:54:51.077Z,5.80
2018-06-28T04:57:01.336Z,5.20
2018-06-28T04:59:05.216Z,5.10
2018-06-28T05:01:08.817Z,5.53
2018-06-28T05:03:12.362Z,5.80
2018-06-28T05:05:15.887Z,5.60
2018-06-28T05:07:19.403Z,5.50
2018-06-28T05:09:22.897Z,5.90
2018-06-28T05:11:27.027Z,6.03
2018-06-28T05:13:30.639Z,5.77
2018-06-28T05:15:34.270Z,6.20
2018-06-28T05:17:38.360Z,6.37
2018-06-28T05:19:41.691Z,5.70
2018-06-28T05:21:45.248Z,5.53
2018-06-28T05:23:48.834Z,6.13
2018-06-28T05:25:52.431Z,6.23
2018-06-28T05:27:56.016Z,6.40
2018-06-28T05:29:59.754Z,6.23
2018-06-28T05:32:03.384Z,6.40
2018-06-28T05:34:06.959Z,6.00
2018-06-28T05:36:10.496Z,6.43
2018-06-28T05:38:14.011Z,6.13
2018-06-28T05:40:17.514Z,5.43
2018-06-28T05:42:21.123Z,5.80
2018-06-28T05:44:24.680Z,5.77
2018-06-28T05:46:28.287Z,5.93
2018-06-28T05:48:31.818Z,5.80
2018-06-28T05:50:35.288Z,5.83
2018-06-28T05:52:38.871Z,5.60
2018-06-28T05:54:42.430Z,5.10
2018-06-28T05:56:45.955Z,5.30
2018-06-28T05:58:49.495Z,5.83
2018-06-28T06:00:53.006Z,5.63
2018-06-28T06:02:58.793Z,5.53
2018-06-28T06:05:02.276Z,5.57
2018-06-28T06:07:05.934Z,4.70
2018-06-28T06:09:10.752Z,5.60
2018-06-28T06:11:14.309Z,5.20
2018-06-28T06:13:17.889Z,5.20
2018-06-28T06:15:21.454Z,4.57
2018-06-28T06:17:25.104Z,4.80
2018-06-28T06:19:28.618Z,4.33
2018-06-28T06:21:32.168Z,4.83
2018-06-28T06:23:35.799Z,4.80
2018-06-28T06:25:39.387Z,5.07
2018-06-28T06:27:42.836Z,4.30
2018-06-28T06:29:46.199Z,4.33
2018-06-28T06:31:49.734Z,4.50
2018-06-28T06:33:53.211Z,4.20
2018-06-28T06:35:56.779Z,4.60
2018-06-28T06:39:58.960Z,5.07
2018-06-28T06:42:02.507Z,4.50
2018-06-28T06:44:06.860Z,4.27
2018-06-28T06:46:10.443Z,4.23
2018-06-28T06:48:14.107Z,4.00
2018-06-28T06:50:17.616Z,4.50
2018-06-28T06:52:21.382Z,4.10
2018-06-28T06:54:24.982Z,4.20
2018-06-28T06:56:28.458Z,4.60
2018-06-28T06:58:31.981Z,4.17
2018-06-28T07:00:35.624Z,4.03
2018-06-28T07:02:39.159Z,4.17
2018-06-28T07:04:42.659Z,4.27
2018-06-28T07:06:46.206Z,4.37
2018-06-28T07:08:49.688Z,3.87
2018-06-28T07:10:53.206Z,3.97
2018-06-28T07:12:56.878Z,3.97
2018-06-28T07:15:00.372Z,3.60
2018-06-28T07:17:03.931Z,3.80
2018-06-28T07:19:07.619Z,3.87
2018-06-28T07:21:11.260Z,3.73
2018-06-28T07:23:14.867Z,3.40
2018-06-28T07:25:18.371Z,3.53
2018-06-28T07:27:21.993Z,3.73
2018-06-28T07:29:25.451Z,3.63
2018-06-28T07:31:28.949Z,3.20
2018-06-28T07:33:32.556Z,2.83
2018-06-28T07:35:36.177Z,3.10
2018-06-28T07:37:39.675Z,3.00
2018-06-28T07:39:43.348Z,3.23
2018-06-28T07:41:46.909Z,3.10
2018-06-28T07:43:50.084Z,4.00
2018-06-28T07:45:54.087Z,4.20
2018-06-28T07:47:57.887Z,4.50
2018-06-28T07:50:01.389Z,4.00
2018-06-28T07:52:04.918Z,4.30
2018-06-28T07:54:08.436Z,4.37
2018-06-28T07:56:12.013Z,4.20
2018-06-28T07:58:15.556Z,4.10
2018-06-28T08:00:19.375Z,4.30
2018-06-28T08:02:23.084Z,4.20
2018-06-28T08:04:26.592Z,4.43
2018-06-28T08:06:30.076Z,4.30
2018-06-28T08:08:33.598Z,4.43
2018-06-28T08:10:37.190Z,5.30
2018-06-28T08:12:40.808Z,4.60
2018-06-28T08:14:44.324Z,4.63
2018-06-28T08:16:47.810Z,4.90
2018-06-28T08:18:51.347Z,4.57
2018-06-28T08:20:54.860Z,5.13
2018-06-28T08:22:58.462Z,4.60
2018-06-28T08:25:02.012Z,5.13
2018-06-28T08:27:05.589Z,5.00
2018-06-28T08:29:09.092Z,5.47
2018-06-28T08:31:12.660Z,4.73
2018-06-28T08:33:16.176Z,5.93
2018-06-28T08:35:19.687Z,5.00
2018-06-28T08:37:23.203Z,5.53
2018-06-28T08:39:26.799Z,5.53
2018-06-28T08:41:30.315Z,5.60
2018-06-28T08:43:33.843Z,5.00
2018-06-28T08:45:37.336Z,5.07
2018-06-28T08:47:40.902Z,5.90
2018-06-28T08:49:44.407Z,5.50
2018-06-28T08:51:47.959Z,5.40
2018-06-28T08:53:51.527Z,6.03
2018-06-28T08:55:55.274Z,6.07
2018-06-28T08:57:58.968Z,5.87
2018-06-28T09:00:02.464Z,7.00
2018-06-28T09:02:06.239Z,6.60
2018-06-28T09:04:09.843Z,6.90
2018-06-28T09:06:13.321Z,7.17
2018-06-28T09:08:16.896Z,7.70
2018-06-28T09:10:20.499Z,8.43
2018-06-28T09:12:24.004Z,8.00
2018-06-28T09:14:27.512Z,7.27
2018-06-28T09:16:31.028Z,7.17
2018-06-28T09:18:34.533Z,8.73
2018-06-28T09:20:39.840Z,7.90
2018-06-28T09:22:43.443Z,8.83
2018-06-28T09:24:46.836Z,8.67
2018-06-28T09:26:50.417Z,9.03
2018-06-28T09:28:53.980Z,9.07
2018-06-28T09:30:57.129Z,9.30
2018-06-28T09:33:00.637Z,9.57
2018-06-28T09:35:04.215Z,9.03
2018-06-28T09:37:07.724Z,9.53
2018-06-28T09:39:11.877Z,9.37
2018-06-28T09:41:15.488Z,8.47
2018-06-28T09:43:18.983Z,9.53
2018-06-28T09:45:22.491Z,8.73
2018-06-28T09:47:26.072Z,8.80
2018-06-28T09:49:29.664Z,9.30
2018-06-28T09:51:32.810Z,8.40
2018-06-28T09:53:36.379Z,10.43
2018-06-28T09:55:40.004Z,9.03
2018-06-28T09:57:45.153Z,9.13
2018-06-28T09:59:48.731Z,8.77
2018-06-28T10:01:52.310Z,8.50
2018-06-28T10:03:55.907Z,9.40
2018-06-28T10:05:59.551Z,7.60
2018-06-28T10:08:03.034Z,8.03
2018-06-28T10:10:06.687Z,8.30
2018-06-28T10:12:12.000Z,7.97
2018-06-28T10:14:15.524Z,8.77
2018-06-28T10:16:19.128Z,8.00
2018-06-28T10:18:22.759Z,8.83
2018-06-28T10:20:26.271Z,8.37
2018-06-28T10:22:29.770Z,7.60
2018-06-28T10:24:32.990Z,7.43
2018-06-28T10:26:36.527Z,8.33
2018-06-28T10:28:40.041Z,8.07
2018-06-28T10:30:43.591Z,8.27
2018-06-28T10:32:47.183Z,7.77
2018-06-28T10:34:50.696Z,6.60
2018-06-28T10:36:54.368Z,6.20
2018-06-28T10:38:57.831Z,6.33
2018-06-28T10:41:01.447Z,5.90
2018-06-28T10:43:04.933Z,6.33
2018-06-28T10:45:08.642Z,6.50
2018-06-28T10:47:12.266Z,6.03
2018-06-28T10:49:15.753Z,5.97
2018-06-28T10:51:19.310Z,6.50
2018-06-28T10:53:23.148Z,5.97
2018-06-28T10:55:26.652Z,6.50
2018-06-28T10:57:30.277Z,5.93
2018-06-28T10:59:33.828Z,6.47
2018-06-28T11:01:37.435Z,6.27
2018-06-28T11:03:41.408Z,5.90
2018-06-28T11:05:45.089Z,7.10
2018-06-28T11:07:48.741Z,5.90
2018-06-28T11:09:52.292Z,6.50
2018-06-28T11:11:55.792Z,6.70
2018-06-28T11:13:59.342Z,7.47
2018-06-28T11:16:02.862Z,7.43
2018-06-28T11:18:06.426Z,6.90
2018-06-28T11:20:09.916Z,6.80
2018-06-28T11:22:13.480Z,7.70
2018-06-28T11:24:16.983Z,7.20
2018-06-28T11:26:20.499Z,7.87
2018-06-28T11:28:24.007Z,7.30
2018-06-28T11:30:27.555Z,7.33
2018-06-28T11:32:31.118Z,7.60
2018-06-28T11:34:34.632Z,7.03
2018-06-28T11:36:38.218Z,7.00
2018-06-28T11:38:41.707Z,7.67
2018-06-28T11:40:45.192Z,7.47
2018-06-28T11:42:48.755Z,7.40
2018-06-28T11:44:52.962Z,8.17
2018-06-28T11:46:56.487Z,7.87
2018-06-28T11:48:59.976Z,7.97
2018-06-28T11:51:03.532Z,7.70
2018-06-28T11:53:07.025Z,9.47
2018-06-28T11:55:10.675Z,8.87
2018-06-28T11:57:14.429Z,9.33
2018-06-28T11:59:17.940Z,9.70
2018-06-28T12:01:21.123Z,9.50
2018-06-28T12:03:24.647Z,9.40
2018-06-28T12:05:28.363Z,10.63
2018-06-28T12:07:32.114Z,10.27
2018-06-28T12:09:35.587Z,10.47
2018-06-28T12:11:39.110Z,9.70
2018-06-28T12:13:42.676Z,10.70
2018-06-28T12:15:46.219Z,10.10
2018-06-28T12:17:49.714Z,9.53
2018-06-28T12:19:53.403Z,9.60
2018-06-28T12:21:56.898Z,8.60
2018-06-28T12:24:00.483Z,9.73
2018-06-28T12:26:04.059Z,9.47
2018-06-28T12:28:07.881Z,9.03
2018-06-28T12:30:11.480Z,8.90
2018-06-28T12:32:15.014Z,7.43
2018-06-28T12:34:18.579Z,7.70
2018-06-28T12:36:22.512Z,8.20
2018-06-28T12:38:26.400Z,7.33
2018-06-28T12:40:30.107Z,7.83
2018-06-28T12:42:33.295Z,7.07
2018-06-28T12:44:36.863Z,6.90
2018-06-28T12:48:00.716Z,6.93
2018-06-28T12:50:05.296Z,7.13
2018-06-28T12:52:48.195Z,6.37
2018-06-28T12:54:51.363Z,7.40
2018-06-28T12:56:54.944Z,7.60
2018-06-28T12:59:00.197Z,7.50
2018-06-28T13:01:03.936Z,5.90
2018-06-28T13:03:07.128Z,5.70
2018-06-28T13:05:11.037Z,5.57
2018-06-28T13:07:14.600Z,5.80
2018-06-28T13:09:18.316Z,6.50
2018-06-28T13:11:21.838Z,5.13
2018-06-28T13:13:25.366Z,5.87
2018-06-28T13:15:28.915Z,5.83
2018-06-28T13:17:32.440Z,5.20
2018-06-28T13:19:35.920Z,5.57
2018-06-28T13:21:39.430Z,5.60
2018-06-28T13:23:43.124Z,5.67
2018-06-28T13:25:46.745Z,5.43
2018-06-28T13:27:50.272Z,6.00
2018-06-28T13:29:53.988Z,6.27
2018-06-28T13:31:57.601Z,5.93
2018-06-28T13:34:01.103Z,5.97
2018-06-28T13:36:04.753Z,6.60
2018-06-28T13:38:08.332Z,5.50
2018-06-28T13:40:12.788Z,6.13
2018-06-28T13:42:16.524Z,5.77
2018-06-28T13:44:19.863Z,5.83
2018-06-28T13:46:23.594Z,6.07
2018-06-28T13:48:26.886Z,5.80
2018-06-28T13:50:30.416Z,5.93
2018-06-28T13:52:33.942Z,5.67
2018-06-28T13:54:37.490Z,5.90
2018-06-28T13:56:41.403Z,6.10
2018-06-28T13:58:44.955Z,5.50
2018-06-28T14:00:48.625Z,5.40
2018-06-28T14:02:52.145Z,6.17
2018-06-28T14:04:55.641Z,5.63
2018-06-28T14:06:59.167Z,6.53
2018-06-28T14:09:02.700Z,6.20
2018-06-28T14:11:06.424Z,6.23
2018-06-28T14:13:10.162Z,5.90
2018-06-28T14:15:13.714Z,5.80
2018-06-28T14:17:17.311Z,5.73
2018-06-28T14:19:20.931Z,6.00
2018-06-28T14:21:25.975Z,5.70
2018-06-28T14:23:29.544Z,6.47
2018-06-28T14:25:33.068Z,6.13
2018-06-28T14:27:36.593Z,6.53
2018-06-28T14:29:40.384Z,6.33
2018-06-28T14:31:43.944Z,6.27
2018-06-28T14:33:47.436Z,6.50
2018-06-28T14:35:51.012Z,6.73
2018-06-28T14:37:54.678Z,6.60
2018-06-28T14:39:58.278Z,6.37
2018-06-28T14:42:01.956Z,6.80
2018-06-28T14:44:05.566Z,6.80
2018-06-28T14:46:09.151Z,5.80
2018-06-28T14:48:12.670Z,7.37
2018-06-28T14:50:16.185Z,7.30
2018-06-28T14:52:19.943Z,6.83
2018-06-28T14:54:23.462Z,6.73
2018-06-28T14:56:27.039Z,7.60
2018-06-28T14:58:30.635Z,8.73
2018-06-28T15:00:36.092Z,7.70
2018-06-28T15:02:39.776Z,8.00
2018-06-28T15:04:43.480Z,7.60
2018-06-28T15:06:48.765Z,7.77
2018-06-28T15:08:53.448Z,7.57
2018-06-28T15:10:57.014Z,7.27
2018-06-28T15:13:01.267Z,7.83
2018-06-28T15:15:05.134Z,8.13
2018-06-28T15:17:08.311Z,8.40
2018-06-28T15:19:11.985Z,8.50
2018-06-28T15:21:15.637Z,8.40
2018-06-28T15:23:19.188Z,9.23
2018-06-28T15:25:22.732Z,8.67
2018-06-28T15:27:26.090Z,9.77
2018-06-28T15:29:29.523Z,10.40
2018-06-28T15:31:33.264Z,12.17
2018-06-28T15:33:36.833Z,10.97
2018-06-28T15:35:40.384Z,13.17
2018-06-28T15:37:43.941Z,11.07
2018-06-28T15:39:47.471Z,11.67
2018-06-28T15:41:52.652Z,12.63
2018-06-28T15:43:56.175Z,22.30
2018-06-28T15:45:59.753Z,18.23
2018-06-28T15:48:03.271Z,15.37
2018-06-28T15:50:07.081Z,14.17
2018-06-28T15:52:10.314Z,14.40
2018-06-28T15:54:13.582Z,14.77
2018-06-28T15:56:17.143Z,15.50
2018-06-28T15:58:20.723Z,14.63
2018-06-28T16:00:24.371Z,15.87
2018-06-28T16:02:27.927Z,15.10
2018-06-28T16:04:31.618Z,14.87
2018-06-28T16:06:35.089Z,14.40
2018-06-28T16:08:38.988Z,14.50
2018-06-28T16:10:43.017Z,16.33
2018-06-28T16:12:46.625Z,13.80
2018-06-28T16:14:50.247Z,12.97
2018-06-28T16:16:53.815Z,13.17
2018-06-28T16:18:57.400Z,14.40
2018-06-28T16:21:01.068Z,15.13
2018-06-28T16:23:04.680Z,14.23
2018-06-28T16:25:08.179Z,14.37
2018-06-28T16:27:12.077Z,14.40
2018-06-28T16:29:15.648Z,15.30
2018-06-28T16:31:19.412Z,13.53
2018-06-28T16:33:23.639Z,14.43
2018-06-28T16:35:27.165Z,12.60
2018-06-28T16:37:30.996Z,9.83
2018-06-28T16:39:34.647Z,8.47
2018-06-28T16:41:38.257Z,9.17
2018-06-28T16:43:41.856Z,7.40
2018-06-28T16:45:45.407Z,7.23
2018-06-28T16:47:48.896Z,7.20
2018-06-28T16:49:52.409Z,7.27
2018-06-28T16:51:55.962Z,7.53
2018-06-28T16:53:59.564Z,7.10
2018-06-28T16:56:03.183Z,7.57
2018-06-28T16:58:07.115Z,8.33
2018-06-28T17:00:10.668Z,7.90
2018-06-28T17:02:14.187Z,6.20
2018-06-28T17:04:17.715Z,6.47
2018-06-28T17:06:21.208Z,7.10
2018-06-28T17:08:24.772Z,7.10
2018-06-28T17:10:28.343Z,8.20
2018-06-28T17:12:31.992Z,6.63
2018-06-28T17:14:35.538Z,6.60
2018-06-28T17:16:39.131Z,5.87
2018-06-28T17:18:42.677Z,7.00
2018-06-28T17:20:46.268Z,6.43
2018-06-28T17:22:49.788Z,7.03
2018-06-28T17:24:53.359Z,7.83
2018-06-28T17:26:56.918Z,6.93
2018-06-28T17:29:00.543Z,6.67
2018-06-28T17:31:04.044Z,7.50
2018-06-28T17:33:07.813Z,7.97
2018-06-28T17:35:11.336Z,6.80
2018-06-28T17:37:15.127Z,7.40
2018-06-28T17:39:18.760Z,6.97
2018-06-28T17:41:22.364Z,7.17
2018-06-28T17:43:26.099Z,7.53
2018-06-28T17:45:29.685Z,7.23
2018-06-28T17:47:33.250Z,7.50
2018-06-28T17:49:36.856Z,8.23
2018-06-28T17:51:40.412Z,7.43
2018-06-28T17:53:45.393Z,7.20
2018-06-28T17:55:49.054Z,7.87
2018-06-28T17:57:52.618Z,7.03
2018-06-28T17:59:56.466Z,6.70
2018-06-28T18:02:00.050Z,7.60
2018-06-28T18:04:03.582Z,7.87
2018-06-28T18:06:07.375Z,9.17
2018-06-28T18:08:10.967Z,8.53
2018-06-28T18:10:14.539Z,9.23
2018-06-28T18:12:18.047Z,8.67
2018-06-28T18:14:21.607Z,8.93
2018-06-28T18:16:25.124Z,8.63
2018-06-28T18:18:32.405Z,9.00
2018-06-28T18:20:36.126Z,8.47
2018-06-28T18:22:40.346Z,8.47
2018-06-28T18:24:44.111Z,8.60
2018-06-28T18:26:47.363Z,8.43
2018-06-28T18:28:50.900Z,9.30
2018-06-28T18:30:54.439Z,8.57
2018-06-28T18:32:58.082Z,9.73
2018-06-28T18:35:01.732Z,9.70
2018-06-28T18:37:05.476Z,8.63
2018-06-28T18:39:09.993Z,9.07
2018-06-28T18:41:13.548Z,10.50
2018-06-28T18:43:17.107Z,10.73
2018-06-28T18:45:20.769Z,10.70
2018-06-28T18:47:24.283Z,11.60
2018-06-28T18:49:27.855Z,21.00
2018-06-28T18:51:31.802Z,11.03
2018-06-28T18:53:35.366Z,10.50
2018-06-28T18:55:39.114Z,16.40
2018-06-28T18:57:42.668Z,10.67
2018-06-28T18:59:46.184Z,10.70
2018-06-28T19:01:49.785Z,10.00
2018-06-28T19:03:53.345Z,11.40
2018-06-28T19:05:56.955Z,10.00
2018-06-28T19:08:00.472Z,7.63
2018-06-28T19:10:09.403Z,8.97
2018-06-28T19:12:12.579Z,8.13
2018-06-28T19:14:21.701Z,8.23
2018-06-28T19:16:30.305Z,8.50
2018-06-28T19:18:33.948Z,8.80
2018-06-28T19:20:37.526Z,8.53
2018-06-28T19:22:46.300Z,8.50
2018-06-28T19:24:50.271Z,10.80
2018-06-28T19:26:53.823Z,9.13
2018-06-28T19:28:57.380Z,9.10
2018-06-28T19:31:06.304Z,9.87
2018-06-28T19:33:09.839Z,9.70
2018-06-28T19:35:13.379Z,9.57
2018-06-28T19:37:22.178Z,9.90
2018-06-28T19:39:31.130Z,9.73
2018-06-28T19:41:39.940Z,10.73
2018-06-28T19:43:43.459Z,10.10
2018-06-28T19:45:47.008Z,9.57
2018-06-28T19:47:51.070Z,10.17
2018-06-28T19:49:59.846Z,9.70
2018-06-28T19:52:08.809Z,10.10
2018-06-28T19:54:12.357Z,9.57
2018-06-28T19:56:16.067Z,8.27
2018-06-28T19:58:19.698Z,10.17
2018-06-28T20:00:28.764Z,10.00
2018-06-28T20:02:37.334Z,10.63
2018-06-28T20:04:45.109Z,10.40
2018-06-28T20:06:48.702Z,9.87
2018-06-28T20:08:52.275Z,9.60
2018-06-28T20:10:55.790Z,9.30
2018-06-28T20:13:04.312Z,9.60
2018-06-28T20:16:11.573Z,9.13
2018-06-28T20:18:20.545Z,10.03
2018-06-28T20:20:26.511Z,10.33
2018-06-28T20:22:30.035Z,9.70
2018-06-28T20:24:33.617Z,9.53
2018-06-28T20:26:42.281Z,9.67
2018-06-28T20:28:51.212Z,9.50
2018-06-28T20:31:00.085Z,11.03
2018-06-28T20:33:08.952Z,9.97
2018-06-28T20:35:12.503Z,9.83
2018-06-28T20:37:16.051Z,9.97
2018-06-28T20:39:19.851Z,10.53
2018-06-28T20:41:23.497Z,9.60
2018-06-28T20:43:27.179Z,9.87
2018-06-28T20:45:30.776Z,9.63
2018-06-28T20:47:34.322Z,10.40
2018-06-28T20:49:37.973Z,10.63
2018-06-28T20:51:41.674Z,10.23
2018-06-28T20:53:45.195Z,9.93
2018-06-28T20:55:48.713Z,10.63
2018-06-28T20:57:52.346Z,10.17
2018-06-28T20:59:55.939Z,10.20
2018-06-28T21:01:59.484Z,10.20
2018-06-28T21:04:03.071Z,9.70
2018-06-28T21:06:06.632Z,9.77
2018-06-28T21:08:10.127Z,9.53
2018-06-28T21:10:13.671Z,10.13
2018-06-28T21:12:17.637Z,10.20
2018-06-28T21:14:21.133Z,9.83
2018-06-28T21:16:24.666Z,9.53
2018-06-28T21:18:28.152Z,9.80
2018-06-28T21:20:31.679Z,10.73
2018-06-28T21:22:35.221Z,10.07
2018-06-28T21:24:38.776Z,11.00
2018-06-28T21:26:42.404Z,10.87
2018-06-28T21:28:45.873Z,11.00
2018-06-28T21:30:49.450Z,9.80
2018-06-28T21:32:53.015Z,10.83
2018-06-28T21:34:56.571Z,10.67
2018-06-28T21:37:00.071Z,10.80
2018-06-28T21:39:03.888Z,11.30
2018-06-28T21:41:07.556Z,10.50
2018-06-28T21:43:11.065Z,11.47
2018-06-28T21:45:14.574Z,11.40
2018-06-28T21:47:18.217Z,10.73
2018-06-28T21:49:21.848Z,10.37
2018-06-28T21:51:25.383Z,10.90
2018-06-28T21:53:28.943Z,11.60
2018-06-28T21:55:32.505Z,11.57
2018-06-28T21:57:36.035Z,12.43
2018-06-28T21:59:39.553Z,12.03
2018-06-28T22:01:54.320Z,11.83
2018-06-28T22:03:57.921Z,12.10
2018-06-28T22:06:01.537Z,11.03
2018-06-28T22:08:05.874Z,12.53
2018-06-28T22:10:09.105Z,11.80
2018-06-28T22:12:12.613Z,12.40
2018-06-28T22:14:17.132Z,13.03
2018-06-28T22:16:20.307Z,12.90
2018-06-28T22:18:23.977Z,12.67
2018-06-28T22:20:28.491Z,12.67
2018-06-28T22:22:32.056Z,12.40
2018-06-28T22:24:35.652Z,12.53
2018-06-28T22:26:39.200Z,13.07
2018-06-28T22:28:43.386Z,11.80
2018-06-28T22:30:46.930Z,12.10
2018-06-28T22:32:50.471Z,12.37
2018-06-28T22:34:53.992Z,13.30
2018-06-28T22:36:57.521Z,12.43
2018-06-28T22:39:01.035Z,12.03
2018-06-28T22:41:04.628Z,11.07
2018-06-28T22:43:08.207Z,11.60
2018-06-28T22:45:12.019Z,12.40
2018-06-28T22:47:15.488Z,11.00
2018-06-28T22:49:19.031Z,10.80
2018-06-28T22:51:22.605Z,12.00
2018-06-28T22:53:26.192Z,11.17
2018-06-28T22:55:29.661Z,11.80
2018-06-28T22:57:33.550Z,11.50
2018-06-28T22:59:37.076Z,11.63
2018-06-28T23:01:40.674Z,11.33
2018-06-28T23:03:44.047Z,11.47
2018-06-28T23:05:47.644Z,11.67
2018-06-28T23:07:51.190Z,12.20
2018-06-28T23:09:55.395Z,11.07
2018-06-28T23:11:58.948Z,11.90
2018-06-28T23:14:02.519Z,12.47
2018-06-28T23:16:06.668Z,11.50
2018-06-28T23:18:10.406Z,11.30
2018-06-28T23:20:13.897Z,12.43
2018-06-28T23:22:51.180Z,10.43
2018-06-28T23:24:54.953Z,10.43
2018-06-28T23:26:58.461Z,11.17
2018-06-28T23:29:01.994Z,10.60
2018-06-28T23:31:05.606Z,11.60
2018-06-28T23:33:09.261Z,10.40
2018-06-28T23:35:12.843Z,11.17
2018-06-28T23:37:16.324Z,10.60
2018-06-28T23:39:19.882Z,10.93
2018-06-28T23:41:23.378Z,11.27
2018-06-28T23:43:26.943Z,10.47
2018-06-28T23:45:30.488Z,10.40
2018-06-28T23:47:34.040Z,11.23
2018-06-28T23:49:37.572Z,11.20
2018-06-28T23:51:41.387Z,11.40
2018-06-28T23:53:45.020Z,11.07
2018-06-28T23:55:48.554Z,10.40
2018-06-28T23:57:52.179Z,11.00
2018-06-28T23:59:55.841Z,10.27
